General Aviation Weather

Text Reports

Enter one or more of the following location identifiers separated by a space:

Zip Code, Four-Character ICAO or Three-Character IATA airport codes.

METAR - Aviation Routine Weather Report
KMNE - Minden, Louisiana
Updated at 10:55 PM GMT on June 03, 2015 (5:55 PM CDT):
METAR KMNE 032255Z AUTO 11003KT 10SM SCT060 SCT070 30/18 A2993 RMK AO2 T02970182
TAF - Terminal Area Forecast
KMNE - Minden, Louisiana
Updated at 10:55 PM GMT on June 03, 2015 (5:55 PM CDT):
No TAF is currently available for this location.
Decoded:
No decoded TAF is available.
PIREP - Pilot Weather Report
KMNE - Minden, Louisiana
Updated at 10:55 PM GMT on June 03, 2015 (5:55 PM CDT):
No PIREP is currently available for this location.
AIRMET - Airmens Meteorological Information
KMNE - Minden, Louisiana
Updated at 10:55 PM GMT on June 03, 2015 (5:55 PM CDT):
No AIRMET is currently available for this location.
SIGMET - Significant Meteorological Information
KMNE - Minden, Louisiana
Updated at 10:55 PM GMT on June 03, 2015 (5:55 PM CDT):
No SIGMET is currently available for this location.
NOTAM - Notice to Airmen
KMNE - Minden, Louisiana
Updated at 10:55 PM GMT on June 03, 2015 (5:55 PM CDT):
No NOTAM is currently available for this location.
Forecast Area
KMNE - Minden, Louisiana
Updated at 10:55 PM GMT on June 03, 2015 (5:55 PM CDT):
No NOTAM is currently available for this location.
Aviation Weather Maps